Time;durP1;ratioP1;P1;durP2;ratioP2;P2;SDS_P1;SDS_P2;PMS_P1;PMS_P2;Temp;Humidity;BMP_temperature;BMP_pressure;BME280_temperature;BME280_humidity;BME280_pressure;Samples;Min_cycle;Max_cycle;Signal;HPM_P1;HPM_P2
2023/10/08 00:00:43;;;;;;;4.60;2.75;;;;;;;;;;5053181;28;20222;-86
2023/10/08 00:03:13;;;;;;;4.03;2.28;;;;;;;;;;5053404;28;20206;-86
2023/10/08 00:05:40;;;;;;;7.95;3.15;;;;;;;;;;5054364;28;20198;-86
2023/10/08 00:08:09;;;;;;;3.00;2.15;;;;;;;;;;5054044;28;20214;-86
2023/10/08 00:10:37;;;;;;;4.50;2.75;;;;;;;;;;5053334;28;20579;-86
2023/10/08 00:13:07;;;;;;;5.28;2.60;;;;;;;;;;5053309;28;20198;-86
2023/10/08 00:15:36;;;;;;;4.45;2.53;;;;;;;;;;5052644;28;20750;-86
2023/10/08 00:18:04;;;;;;;3.03;2.35;;;;;;;;;;5053404;28;20313;-85
2023/10/08 00:20:35;;;;;;;3.80;2.80;;;;;;;;;;5052556;28;20255;-86
2023/10/08 00:23:07;;;;;;;4.32;2.55;;;;;;;;;;5053378;28;20305;-86
2023/10/08 00:25:40;;;;;;;5.50;2.53;;;;;;;;;;5052824;28;20226;-86
2023/10/08 00:28:10;;;;;;;3.38;2.40;;;;;;;;;;5053620;28;20217;-85
2023/10/08 00:30:38;;;;;;;5.30;2.67;;;;;;;;;;5053072;28;20297;-86
2023/10/08 00:33:05;;;;;;;5.95;2.75;;;;;;;;;;5053629;28;20234;-86
2023/10/08 00:35:33;;;;;;;4.82;2.97;;;;;;;;;;5052601;28;20253;-87
2023/10/08 00:38:00;;;;;;;4.20;2.80;;;;;;;;;;5053006;28;20229;-85
2023/10/08 00:40:38;;;;;;;3.70;2.43;;;;;;;;;;5044436;28;20230;-85
2023/10/08 00:43:10;;;;;;;4.20;2.67;;;;;;;;;;5053460;28;20205;-85
2023/10/08 00:45:43;;;;;;;3.90;2.40;;;;;;;;;;5053004;28;20218;-86
2023/10/08 00:48:11;;;;;;;6.10;3.00;;;;;;;;;;5052553;28;20225;-86
2023/10/08 00:50:43;;;;;;;4.20;2.70;;;;;;;;;;5052921;28;20202;-85
2023/10/08 00:53:20;;;;;;;2.92;2.35;;;;;;;;;;5052715;28;20293;-85
2023/10/08 00:55:54;;;;;;;3.60;2.50;;;;;;;;;;5053139;28;20263;-85
2023/10/08 00:58:26;;;;;;;5.83;2.63;;;;;;;;;;5052087;28;20696;-86
2023/10/08 01:00:59;;;;;;;4.67;2.67;;;;;;;;;;5053065;28;20202;-85
2023/10/08 01:03:27;;;;;;;3.45;2.67;;;;;;;;;;5052433;28;20686;-84
2023/10/08 01:05:54;;;;;;;4.60;2.80;;;;;;;;;;5046266;28;20203;-85
2023/10/08 01:08:34;;;;;;;5.28;2.58;;;;;;;;;;5050653;28;20214;-84
2023/10/08 01:11:02;;;;;;;4.95;2.65;;;;;;;;;;5052935;28;20198;-86
2023/10/08 01:13:44;;;;;;;5.78;2.50;;;;;;;;;;5052265;28;20217;-85
2023/10/08 01:16:11;;;;;;;7.80;2.90;;;;;;;;;;5052227;28;20688;-85
2023/10/08 01:18:42;;;;;;;6.60;3.10;;;;;;;;;;5051771;28;20226;-85
2023/10/08 01:21:17;;;;;;;3.43;2.47;;;;;;;;;;5052169;28;20336;-85
2023/10/08 01:23:47;;;;;;;3.40;2.22;;;;;;;;;;5052064;28;20233;-85
2023/10/08 01:26:15;;;;;;;4.05;2.63;;;;;;;;;;5052395;28;20226;-85
2023/10/08 01:28:43;;;;;;;2.83;2.30;;;;;;;;;;5051918;28;20238;-86
2023/10/08 01:31:12;;;;;;;3.70;2.30;;;;;;;;;;5053116;28;20202;-85
2023/10/08 01:33:47;;;;;;;3.92;2.47;;;;;;;;;;5052368;28;20607;-85
2023/10/08 01:36:14;;;;;;;4.13;2.90;;;;;;;;;;5052056;28;20290;-85
2023/10/08 01:38:41;;;;;;;2.50;2.13;;;;;;;;;;5051757;28;20234;-84
2023/10/08 01:41:18;;;;;;;4.50;2.70;;;;;;;;;;5052610;28;20194;-85
2023/10/08 01:43:45;;;;;;;4.43;2.57;;;;;;;;;;5051980;28;20248;-85
2023/10/08 01:46:12;;;;;;;5.20;3.17;;;;;;;;;;5052380;28;20238;-85
2023/10/08 01:48:39;;;;;;;4.60;2.50;;;;;;;;;;5052255;28;20233;-85
2023/10/08 01:51:11;;;;;;;3.67;2.20;;;;;;;;;;5052769;28;20575;-85
2023/10/08 01:53:39;;;;;;;5.73;3.03;;;;;;;;;;5052426;28;20317;-85
2023/10/08 01:56:06;;;;;;;4.63;2.50;;;;;;;;;;5052409;28;20226;-85
2023/10/08 01:58:34;;;;;;;5.60;2.47;;;;;;;;;;5052214;28;20233;-86
2023/10/08 02:01:05;;;;;;;5.03;2.83;;;;;;;;;;5052960;28;20198;-86
2023/10/08 02:03:33;;;;;;;2.92;2.63;;;;;;;;;;5052575;28;20248;-86
2023/10/08 02:06:05;;;;;;;3.00;2.30;;;;;;;;;;5054039;28;20208;-85
2023/10/08 02:08:32;;;;;;;4.78;2.60;;;;;;;;;;5052289;28;20303;-86
2023/10/08 02:10:59;;;;;;;4.73;2.57;;;;;;;;;;5052733;28;20656;-86
2023/10/08 02:13:26;;;;;;;4.80;2.67;;;;;;;;;;5052649;28;20682;-85
2023/10/08 02:15:54;;;;;;;3.03;2.50;;;;;;;;;;5052332;28;20236;-85
2023/10/08 02:18:23;;;;;;;4.60;2.90;;;;;;;;;;5053594;28;20300;-86
2023/10/08 02:20:50;;;;;;;5.10;2.65;;;;;;;;;;5056492;28;20779;-86
2023/10/08 02:23:18;;;;;;;3.63;2.57;;;;;;;;;;5057974;28;20210;-86
2023/10/08 02:25:45;;;;;;;5.13;2.73;;;;;;;;;;5057222;28;20570;-85
2023/10/08 02:28:15;;;;;;;4.60;2.57;;;;;;;;;;5055488;28;20221;-85
2023/10/08 02:30:42;;;;;;;6.70;3.00;;;;;;;;;;5055976;28;20649;-86
2023/10/08 02:33:15;;;;;;;8.90;3.10;;;;;;;;;;5055369;28;20209;-86
2023/10/08 02:35:43;;;;;;;4.65;2.42;;;;;;;;;;5055703;28;20730;-85
2023/10/08 02:38:12;;;;;;;3.73;2.70;;;;;;;;;;5054792;28;20241;-85
2023/10/08 02:40:44;;;;;;;3.03;2.40;;;;;;;;;;5055677;28;20232;-85
2023/10/08 02:43:14;;;;;;;5.45;2.60;;;;;;;;;;5055349;28;20244;-86
2023/10/08 02:45:41;;;;;;;3.43;2.57;;;;;;;;;;5055741;28;20553;-85
2023/10/08 02:48:11;;;;;;;4.87;2.80;;;;;;;;;;5054955;28;20228;-85
2023/10/08 02:50:40;;;;;;;4.57;2.73;;;;;;;;;;5055698;28;20748;-86
2023/10/08 02:53:10;;;;;;;4.45;2.55;;;;;;;;;;5055010;28;20210;-85
2023/10/08 02:55:42;;;;;;;4.57;2.80;;;;;;;;;;5048091;28;20605;-85
2023/10/08 02:58:14;;;;;;;5.23;2.53;;;;;;;;;;5054703;28;20225;-85
2023/10/08 03:00:41;;;;;;;3.53;2.33;;;;;;;;;;5055742;28;20215;-85
2023/10/08 03:03:15;;;;;;;3.27;2.30;;;;;;;;;;5054958;28;20206;-86
2023/10/08 03:05:43;;;;;;;6.10;2.80;;;;;;;;;;5055262;28;20210;-85
2023/10/08 03:08:11;;;;;;;5.97;2.67;;;;;;;;;;5054366;28;20220;-85
2023/10/08 03:10:39;;;;;;;3.53;2.50;;;;;;;;;;5055159;28;20613;-85
2023/10/08 03:13:09;;;;;;;7.50;2.97;;;;;;;;;;5055189;28;20208;-85
2023/10/08 03:15:46;;;;;;;3.30;2.63;;;;;;;;;;5054559;28;20264;-86
2023/10/08 03:18:15;;;;;;;6.00;2.50;;;;;;;;;;5054547;28;20206;-86
2023/10/08 03:20:45;;;;;;;4.20;2.60;;;;;;;;;;5055460;28;20267;-85
2023/10/08 03:23:33;;;;;;;3.90;2.77;;;;;;;;;;5056206;28;20210;-86
2023/10/08 03:26:01;;;;;;;3.60;3.07;;;;;;;;;;5055373;28;20209;-86
2023/10/08 03:28:28;;;;;;;3.27;2.50;;;;;;;;;;5054891;28;20234;-85
2023/10/08 03:31:03;;;;;;;3.93;2.77;;;;;;;;;;5054211;28;20263;-86
2023/10/08 03:33:34;;;;;;;4.40;3.07;;;;;;;;;;5054932;28;20233;-86
2023/10/08 03:36:09;;;;;;;4.40;2.70;;;;;;;;;;5054644;28;20210;-85
2023/10/08 03:38:45;;;;;;;4.27;2.90;;;;;;;;;;5053930;28;20316;-85
2023/10/08 03:41:17;;;;;;;4.73;2.77;;;;;;;;;;5058354;28;20220;-86
2023/10/08 03:43:53;;;;;;;6.27;2.60;;;;;;;;;;5074097;28;20218;-86
2023/10/08 03:46:23;;;;;;;3.73;2.80;;;;;;;;;;5074738;28;20523;-86
2023/10/08 03:48:51;;;;;;;3.83;2.77;;;;;;;;;;5074428;28;20214;-85
2023/10/08 03:51:21;;;;;;;4.10;3.10;;;;;;;;;;5074243;28;20210;-86
2023/10/08 03:54:15;;;;;;;4.80;3.03;;;;;;;;;;5071923;28;20232;-86
2023/10/08 03:56:45;;;;;;;3.90;2.80;;;;;;;;;;5068418;28;20221;-82
2023/10/08 03:59:14;;;;;;;3.97;2.67;;;;;;;;;;5062422;28;20783;-86
2023/10/08 04:01:41;;;;;;;5.53;3.07;;;;;;;;;;5054460;28;20202;-85
2023/10/08 04:04:12;;;;;;;4.93;2.90;;;;;;;;;;5054091;28;20229;-84
2023/10/08 04:06:48;;;;;;;5.57;2.93;;;;;;;;;;5052980;28;20229;-85
2023/10/08 04:09:23;;;;;;;4.03;2.87;;;;;;;;;;5053499;28;20257;-85
2023/10/08 04:11:55;;;;;;;4.50;3.07;;;;;;;;;;5054343;28;20209;-86
2023/10/08 04:14:23;;;;;;;5.77;2.80;;;;;;;;;;5053485;28;20234;-86
2023/10/08 04:16:52;;;;;;;5.13;2.97;;;;;;;;;;5053828;28;20331;-86
2023/10/08 04:19:20;;;;;;;4.30;2.83;;;;;;;;;;5053446;28;20234;-86
2023/10/08 04:21:53;;;;;;;4.10;2.77;;;;;;;;;;5054166;28;20280;-86
2023/10/08 04:24:27;;;;;;;5.50;2.90;;;;;;;;;;5053494;28;20311;-86
2023/10/08 04:26:56;;;;;;;5.03;2.70;;;;;;;;;;5053784;28;20746;-85
2023/10/08 04:29:23;;;;;;;4.83;2.87;;;;;;;;;;5053084;28;20325;-85
2023/10/08 04:32:00;;;;;;;2.93;2.43;;;;;;;;;;5053451;28;20203;-86
2023/10/08 04:34:28;;;;;;;5.87;2.77;;;;;;;;;;5052859;28;20716;-85
2023/10/08 04:37:00;;;;;;;4.80;3.03;;;;;;;;;;5053184;28;20596;-85
2023/10/08 04:39:32;;;;;;;8.20;3.33;;;;;;;;;;5052860;28;20240;-85
2023/10/08 04:42:00;;;;;;;6.53;2.93;;;;;;;;;;5053362;28;20209;-86
2023/10/08 04:44:31;;;;;;;4.57;3.10;;;;;;;;;;5052718;28;20313;-86
2023/10/08 04:47:04;;;;;;;4.53;2.77;;;;;;;;;;5053236;28;20225;-85
2023/10/08 04:49:32;;;;;;;3.97;3.13;;;;;;;;;;5052259;28;20665;-86
2023/10/08 04:52:05;;;;;;;5.03;2.90;;;;;;;;;;5053162;28;20707;-86
2023/10/08 04:54:32;;;;;;;4.57;3.00;;;;;;;;;;5052530;28;20280;-86
2023/10/08 04:57:00;;;;;;;3.17;2.83;;;;;;;;;;5053032;28;20233;-86
2023/10/08 04:59:33;;;;;;;3.43;2.77;;;;;;;;;;5052152;28;20234;-86
2023/10/08 05:02:19;;;;;;;3.73;2.93;;;;;;;;;;5053539;28;20575;-85
2023/10/08 05:04:55;;;;;;;4.63;3.07;;;;;;;;;;5052432;28;20765;-85
2023/10/08 05:10:31;;;;;;;4.17;2.33;;;;;;;;;;5053310;28;20279;-86
2023/10/08 05:13:15;;;;;;;2.97;2.50;;;;;;;;;;5056207;28;20209;-86
2023/10/08 05:15:50;;;;;;;6.13;3.23;;;;;;;;;;5053507;28;20225;-86
2023/10/08 05:18:23;;;;;;;5.43;3.07;;;;;;;;;;5053365;28;20229;-85
2023/10/08 05:21:03;;;;;;;4.63;2.70;;;;;;;;;;5053729;28;20623;-86
2023/10/08 05:23:53;;;;;;;4.63;3.10;;;;;;;;;;5052735;28;20236;-86
2023/10/08 05:26:42;;;;;;;4.77;3.20;;;;;;;;;;5052878;28;20605;-85
2023/10/08 05:32:17;;;;;;;4.93;2.90;;;;;;;;;;5052229;28;20202;-87
2023/10/08 05:34:42;;;;;;;4.67;2.97;;;;;;;;;;5052339;28;20238;-86
2023/10/08 05:37:31;;;;;;;3.83;2.90;;;;;;;;;;5052652;28;20233;-87
2023/10/08 05:40:18;;;;;;;5.67;2.87;;;;;;;;;;5046593;28;20290;-86
2023/10/08 05:42:46;;;;;;;4.27;2.90;;;;;;;;;;5053390;28;20297;-87
2023/10/08 05:45:29;;;;;;;5.13;2.73;;;;;;;;;;5052372;28;20621;-87
2023/10/08 05:48:07;;;;;;;5.63;2.73;;;;;;;;;;5046590;28;20309;-86
2023/10/08 05:50:42;;;;;;;3.73;2.87;;;;;;;;;;5052624;28;20575;-86
2023/10/08 05:53:19;;;;;;;6.57;3.13;;;;;;;;;;5053113;28;20210;-86
2023/10/08 05:56:01;;;;;;;5.80;2.80;;;;;;;;;;5048766;28;20561;-86
2023/10/08 05:58:35;;;;;;;4.53;3.30;;;;;;;;;;5053384;28;20241;-85
2023/10/08 06:01:07;;;;;;;3.90;2.57;;;;;;;;;;5056487;28;20280;-85
2023/10/08 06:03:36;;;;;;;7.43;2.60;;;;;;;;;;5055586;28;20316;-84
2023/10/08 06:09:20;;;;;;;2.90;2.60;;;;;;;;;;5047144;28;20656;-84
2023/10/08 06:12:09;;;;;;;3.93;3.10;;;;;;;;;;5047949;28;20205;-83
2023/10/08 06:15:08;;;;;;;3.57;2.80;;;;;;;;;;5055398;28;20226;-82
2023/10/08 06:17:55;;;;;;;5.63;2.90;;;;;;;;;;5054010;28;20314;-83
2023/10/08 06:20:25;;;;;;;4.97;2.97;;;;;;;;;;5054590;28;20237;-83
2023/10/08 06:22:58;;;;;;;6.17;2.80;;;;;;;;;;5055410;28;20201;-83
2023/10/08 06:25:27;;;;;;;4.63;2.90;;;;;;;;;;5054526;28;20232;-83
2023/10/08 06:27:57;;;;;;;4.07;2.83;;;;;;;;;;5054690;28;20257;-83
2023/10/08 06:30:28;;;;;;;4.10;3.13;;;;;;;;;;5050142;28;20312;-82
2023/10/08 06:32:56;;;;;;;4.07;3.03;;;;;;;;;;5055111;28;20672;-82
2023/10/08 06:35:25;;;;;;;5.13;3.00;;;;;;;;;;5054605;28;20245;-82
2023/10/08 06:37:55;;;;;;;6.37;3.40;;;;;;;;;;5081286;23;20225;-88
2023/10/08 06:43:16;;;;;;;5.50;2.77;;;;;;;;;;5059460;28;20205;-87
2023/10/08 06:45:44;;;;;;;6.03;2.87;;;;;;;;;;5034525;28;20595;-88
2023/10/08 06:48:17;;;;;;;5.90;2.90;;;;;;;;;;5029085;28;20229;-87
2023/10/08 06:50:45;;;;;;;7.13;3.07;;;;;;;;;;5034731;28;20299;-88
2023/10/08 06:53:13;;;;;;;3.97;2.70;;;;;;;;;;5034779;28;20286;-88
2023/10/08 06:55:41;;;;;;;5.73;3.10;;;;;;;;;;5034185;28;20242;-88
2023/10/08 06:58:11;;;;;;;5.17;3.00;;;;;;;;;;5033798;28;20252;-88
2023/10/08 07:00:39;;;;;;;5.07;3.20;;;;;;;;;;5034525;28;20233;-90
2023/10/08 07:03:08;;;;;;;5.57;3.13;;;;;;;;;;5034566;28;20261;-91
2023/10/08 07:05:40;;;;;;;4.40;3.00;;;;;;;;;;5054051;28;20699;-90
2023/10/08 07:08:12;;;;;;;3.97;3.13;;;;;;;;;;5053896;28;20244;-88
2023/10/08 07:10:40;;;;;;;4.47;3.10;;;;;;;;;;5070654;28;20267;-89
2023/10/08 07:13:08;;;;;;;5.70;3.10;;;;;;;;;;5061992;28;20210;-87
2023/10/08 07:15:40;;;;;;;6.43;3.30;;;;;;;;;;5064200;28;20205;-87
2023/10/08 07:18:12;;;;;;;4.20;2.80;;;;;;;;;;5059136;28;20291;-86
2023/10/08 07:20:41;;;;;;;3.37;2.60;;;;;;;;;;5064285;28;20555;-87
2023/10/08 07:23:18;;;;;;;4.03;2.73;;;;;;;;;;5058633;28;20206;-86
2023/10/08 07:25:51;;;;;;;4.83;3.10;;;;;;;;;;5061912;28;20304;-86
2023/10/08 07:28:19;;;;;;;5.70;2.90;;;;;;;;;;5053394;28;20230;-85
2023/10/08 07:30:49;;;;;;;4.43;3.10;;;;;;;;;;5059867;28;20222;-86
2023/10/08 07:33:18;;;;;;;5.03;3.20;;;;;;;;;;5053938;28;20202;-85
2023/10/08 07:35:51;;;;;;;6.27;3.20;;;;;;;;;;5062292;28;20276;-86
2023/10/08 07:38:19;;;;;;;4.07;2.73;;;;;;;;;;5064067;28;20308;-86
2023/10/08 07:40:46;;;;;;;4.17;3.07;;;;;;;;;;5065950;28;20205;-88
2023/10/08 07:43:13;;;;;;;4.90;2.87;;;;;;;;;;5071208;28;20210;-87
2023/10/08 07:45:45;;;;;;;4.60;2.80;;;;;;;;;;5064867;28;20206;-87
2023/10/08 07:48:15;;;;;;;3.97;3.37;;;;;;;;;;5058064;28;20226;-87
2023/10/08 07:50:43;;;;;;;4.43;2.77;;;;;;;;;;5053335;28;20595;-85
2023/10/08 07:53:17;;;;;;;5.40;3.03;;;;;;;;;;5052530;28;20217;-85
2023/10/08 07:55:45;;;;;;;5.67;3.33;;;;;;;;;;5063881;28;20304;-88
2023/10/08 07:58:14;;;;;;;4.27;3.10;;;;;;;;;;5057516;28;20271;-87
2023/10/08 08:00:41;;;;;;;3.67;2.83;;;;;;;;;;5061066;28;20725;-88
2023/10/08 08:03:08;;;;;;;4.33;2.57;;;;;;;;;;5061124;28;20209;-87
2023/10/08 08:05:38;;;;;;;6.10;3.03;;;;;;;;;;5062555;28;20202;-88
2023/10/08 08:08:06;;;;;;;4.97;2.97;;;;;;;;;;5059101;28;20703;-89
2023/10/08 08:10:36;;;;;;;5.20;2.70;;;;;;;;;;5060751;28;20233;-90
2023/10/08 08:13:05;;;;;;;2.90;2.53;;;;;;;;;;5053297;28;20205;-87
2023/10/08 08:15:33;;;;;;;6.27;3.03;;;;;;;;;;5060473;28;20226;-87
2023/10/08 08:18:00;;;;;;;6.90;3.33;;;;;;;;;;5060653;28;20234;-88
2023/10/08 08:20:38;;;;;;;4.77;3.07;;;;;;;;;;5060570;28;20226;-87
2023/10/08 08:23:09;;;;;;;3.65;2.70;;;;;;;;;;5058984;28;20210;-78
2023/10/08 08:25:45;;;;;;;5.40;2.72;;;;;;;;;;5052111;28;20234;-89
2023/10/08 08:28:16;;;;;;;8.02;3.00;;;;;;;;;;5060260;28;20226;-85
2023/10/08 08:30:46;;;;;;;3.25;2.58;;;;;;;;;;5060496;28;20212;-88
2023/10/08 08:33:16;;;;;;;3.65;3.15;;;;;;;;;;5046760;28;20873;-87
2023/10/08 08:35:45;;;;;;;5.25;2.78;;;;;;;;;;5053646;28;20263;-87
2023/10/08 08:38:13;;;;;;;3.47;2.50;;;;;;;;;;5071114;28;20229;-87
2023/10/08 08:40:40;;;;;;;5.53;2.85;;;;;;;;;;5053347;28;20687;-87
2023/10/08 08:43:09;;;;;;;3.63;2.55;;;;;;;;;;5060441;28;20206;-87
2023/10/08 08:45:40;;;;;;;6.38;3.13;;;;;;;;;;5052561;28;20300;-87
2023/10/08 08:48:07;;;;;;;5.32;3.00;;;;;;;;;;5071560;28;20217;-86
2023/10/08 08:50:35;;;;;;;3.78;3.10;;;;;;;;;;5053995;28;20221;-87
2023/10/08 08:53:04;;;;;;;4.07;3.22;;;;;;;;;;5051633;28;20676;-87
2023/10/08 08:55:33;;;;;;;5.40;2.70;;;;;;;;;;5058491;28;20646;-87
2023/10/08 08:58:00;;;;;;;6.68;3.08;;;;;;;;;;5050267;28;20229;-87
2023/10/08 09:00:29;;;;;;;4.90;2.85;;;;;;;;;;5055616;28;20240;-88
2023/10/08 09:02:56;;;;;;;4.18;2.63;;;;;;;;;;5049265;28;20217;-86
2023/10/08 09:05:32;;;;;;;4.50;2.88;;;;;;;;;;5054626;28;20225;-86
2023/10/08 09:08:03;;;;;;;3.05;2.65;;;;;;;;;;5060546;28;20308;-87
2023/10/08 09:10:36;;;;;;;5.78;3.08;;;;;;;;;;5059573;28;20279;-86
2023/10/08 09:13:07;;;;;;;4.20;3.00;;;;;;;;;;5052604;28;20214;-88
2023/10/08 09:15:34;;;;;;;5.78;2.90;;;;;;;;;;5063024;28;20297;-86
2023/10/08 09:18:03;;;;;;;4.78;2.53;;;;;;;;;;5060960;28;20256;-86
2023/10/08 09:20:31;;;;;;;6.10;3.22;;;;;;;;;;5050138;28;20230;-86
2023/10/08 09:23:08;;;;;;;5.50;2.95;;;;;;;;;;5052177;28;20210;-86
2023/10/08 09:25:35;;;;;;;3.95;2.47;;;;;;;;;;5050655;28;20256;-86
2023/10/08 09:28:02;;;;;;;5.00;2.75;;;;;;;;;;5052720;28;20594;-86
2023/10/08 09:30:31;;;;;;;5.78;3.20;;;;;;;;;;5050447;28;20233;-86
2023/10/08 09:32:58;;;;;;;5.25;2.83;;;;;;;;;;5047659;28;20209;-86
2023/10/08 09:35:26;;;;;;;3.95;2.70;;;;;;;;;;5050444;28;20229;-87
2023/10/08 09:37:54;;;;;;;5.15;2.95;;;;;;;;;;5053568;28;20221;-86
2023/10/08 09:40:22;;;;;;;5.38;2.85;;;;;;;;;;5055974;28;20225;-85
2023/10/08 09:42:49;;;;;;;6.53;2.83;;;;;;;;;;5061364;28;20216;-86
2023/10/08 09:45:16;;;;;;;4.60;3.00;;;;;;;;;;5063469;28;20222;-88
2023/10/08 09:47:48;;;;;;;4.43;3.10;;;;;;;;;;5059105;28;20248;-90
2023/10/08 09:50:18;;;;;;;3.13;2.38;;;;;;;;;;5058946;28;20222;-93
2023/10/08 09:52:50;;;;;;;3.53;2.45;;;;;;;;;;5050671;28;20229;-91
2023/10/08 09:55:20;;;;;;;3.78;3.03;;;;;;;;;;5056776;28;20605;-91
2023/10/08 09:57:47;;;;;;;6.05;2.88;;;;;;;;;;5054921;28;20256;-91
2023/10/08 10:00:18;;;;;;;4.93;2.97;;;;;;;;;;5056590;28;20233;-93
2023/10/08 10:02:47;;;;;;;4.32;2.70;;;;;;;;;;5051387;28;20626;-93
2023/10/08 10:05:15;;;;;;;7.25;2.50;;;;;;;;;;5050419;28;20237;-88
2023/10/08 10:07:43;;;;;;;3.10;2.25;;;;;;;;;;5059623;28;20241;-86
2023/10/08 10:10:26;;;;;;;6.03;2.92;;;;;;;;;;5059339;28;20220;-86
2023/10/08 10:12:53;;;;;;;4.72;2.83;;;;;;;;;;5055604;28;20221;-87
2023/10/08 10:15:21;;;;;;;3.25;2.53;;;;;;;;;;5054194;28;20229;-86
2023/10/08 10:17:50;;;;;;;6.53;2.50;;;;;;;;;;5061250;28;20307;-86
2023/10/08 10:20:17;;;;;;;4.28;2.70;;;;;;;;;;5070569;28;20225;-87
2023/10/08 10:22:45;;;;;;;3.75;2.47;;;;;;;;;;5054225;28;20209;-87
2023/10/08 10:25:17;;;;;;;7.93;3.28;;;;;;;;;;5050354;28;20245;-87
2023/10/08 10:28:04;;;;;;;8.13;3.30;;;;;;;;;;5058039;28;20230;-87
2023/10/08 10:30:32;;;;;;;3.45;2.80;;;;;;;;;;5052140;28;20225;-86
2023/10/08 10:33:02;;;;;;;3.50;2.60;;;;;;;;;;5050853;28;20206;-86
2023/10/08 10:35:29;;;;;;;6.03;2.95;;;;;;;;;;5058259;28;20230;-86
2023/10/08 10:38:03;;;;;;;3.38;2.70;;;;;;;;;;5059396;28;20248;-86
2023/10/08 10:40:39;;;;;;;3.92;2.83;;;;;;;;;;5057196;28;20234;-87
2023/10/08 10:43:06;;;;;;;3.47;2.75;;;;;;;;;;5054003;28;20221;-85
2023/10/08 10:45:39;;;;;;;6.47;2.92;;;;;;;;;;5053895;28;20276;-85
2023/10/08 10:48:12;;;;;;;5.07;2.67;;;;;;;;;;5051220;28;20225;-85
2023/10/08 10:50:48;;;;;;;6.80;3.20;;;;;;;;;;5053860;28;20309;-85
2023/10/08 10:53:16;;;;;;;3.67;3.03;;;;;;;;;;5061723;28;20568;-87
2023/10/08 10:55:58;;;;;;;6.25;2.80;;;;;;;;;;5064091;28;20262;-85
2023/10/08 10:58:26;;;;;;;6.72;2.97;;;;;;;;;;5051033;28;20233;-86
2023/10/08 11:00:57;;;;;;;2.95;2.50;;;;;;;;;;5056793;28;20264;-85
2023/10/08 11:03:28;;;;;;;3.28;2.75;;;;;;;;;;5053701;28;20312;-86
2023/10/08 11:05:59;;;;;;;6.30;2.75;;;;;;;;;;5053348;28;20690;-85
2023/10/08 11:08:34;;;;;;;3.42;2.75;;;;;;;;;;5053975;28;20257;-87
2023/10/08 11:11:05;;;;;;;4.97;2.95;;;;;;;;;;5053159;28;20234;-86
2023/10/08 11:13:37;;;;;;;5.47;2.63;;;;;;;;;;5054206;28;20232;-85
2023/10/08 11:16:05;;;;;;;4.78;3.03;;;;;;;;;;5050725;28;20217;-85
2023/10/08 11:18:33;;;;;;;5.20;2.88;;;;;;;;;;5054262;28;20254;-86
2023/10/08 11:21:13;;;;;;;3.92;2.80;;;;;;;;;;5056972;28;21350;-86
2023/10/08 11:23:43;;;;;;;4.45;2.60;;;;;;;;;;5053322;28;20317;-85
2023/10/08 11:26:12;;;;;;;3.83;2.67;;;;;;;;;;5053435;28;20209;-84
2023/10/08 11:28:41;;;;;;;5.50;3.10;;;;;;;;;;5053053;28;20234;-84
2023/10/08 11:31:09;;;;;;;7.10;3.17;;;;;;;;;;5054005;28;20205;-83
2023/10/08 11:33:38;;;;;;;4.68;3.13;;;;;;;;;;5053764;28;20247;-83
2023/10/08 11:36:13;;;;;;;4.80;3.05;;;;;;;;;;5052909;28;20241;-84
2023/10/08 11:38:41;;;;;;;4.78;2.67;;;;;;;;;;5052545;28;20256;-84
2023/10/08 11:41:20;;;;;;;6.72;2.72;;;;;;;;;;5050830;28;20234;-83
2023/10/08 11:43:53;;;;;;;4.57;2.78;;;;;;;;;;5052394;28;20221;-84
2023/10/08 11:46:20;;;;;;;5.03;2.70;;;;;;;;;;5052856;28;20291;-83
2023/10/08 11:48:50;;;;;;;6.38;3.10;;;;;;;;;;5060297;28;20240;-83
2023/10/08 11:51:17;;;;;;;5.95;2.80;;;;;;;;;;5052727;28;20575;-83
2023/10/08 11:53:45;;;;;;;7.88;2.80;;;;;;;;;;5053235;28;20252;-83
2023/10/08 11:56:13;;;;;;;4.63;3.10;;;;;;;;;;5052787;28;20264;-85
2023/10/08 11:58:44;;;;;;;4.88;2.90;;;;;;;;;;5051878;28;20238;-84
2023/10/08 12:01:15;;;;;;;7.68;3.47;;;;;;;;;;5050446;28;20198;-84
2023/10/08 12:03:43;;;;;;;4.00;2.85;;;;;;;;;;5052332;28;20316;-84
2023/10/08 12:06:15;;;;;;;6.65;3.13;;;;;;;;;;5052678;28;20198;-83
2023/10/08 12:08:44;;;;;;;5.70;2.95;;;;;;;;;;5052098;28;20236;-84
2023/10/08 12:11:13;;;;;;;5.63;3.10;;;;;;;;;;5058188;28;20659;-83
2023/10/08 12:13:44;;;;;;;3.88;2.92;;;;;;;;;;5053467;28;20260;-84
2023/10/08 12:16:12;;;;;;;4.05;2.97;;;;;;;;;;5046155;28;20273;-85
2023/10/08 12:18:40;;;;;;;6.50;3.38;;;;;;;;;;5052389;28;20256;-85
2023/10/08 12:21:10;;;;;;;6.13;3.42;;;;;;;;;;5050042;28;20217;-85
2023/10/08 12:23:39;;;;;;;4.65;2.78;;;;;;;;;;5061443;28;20229;-86
2023/10/08 12:26:07;;;;;;;7.38;2.78;;;;;;;;;;5052954;28;20212;-84
2023/10/08 12:28:36;;;;;;;5.65;2.63;;;;;;;;;;5055832;28;20257;-87
2023/10/08 12:31:03;;;;;;;4.32;3.00;;;;;;;;;;5060438;28;20766;-85
2023/10/08 12:33:31;;;;;;;5.13;2.92;;;;;;;;;;5052668;28;20749;-84
2023/10/08 12:36:05;;;;;;;6.55;2.67;;;;;;;;;;5053515;28;20202;-84
2023/10/08 12:38:32;;;;;;;6.25;3.08;;;;;;;;;;5049404;28;20609;-85
2023/10/08 12:41:08;;;;;;;7.80;2.63;;;;;;;;;;5052152;28;20755;-85
2023/10/08 12:43:38;;;;;;;5.38;3.22;;;;;;;;;;5049271;28;20225;-84
2023/10/08 12:46:10;;;;;;;4.10;2.67;;;;;;;;;;5051565;28;20210;-84
2023/10/08 12:48:38;;;;;;;7.00;2.97;;;;;;;;;;5051214;28;20241;-83
2023/10/08 12:51:06;;;;;;;3.95;3.00;;;;;;;;;;5051569;28;20571;-83
2023/10/08 12:53:37;;;;;;;3.80;2.58;;;;;;;;;;5051236;28;20232;-83
2023/10/08 12:56:06;;;;;;;6.05;3.17;;;;;;;;;;5051219;28;20205;-83
2023/10/08 12:58:38;;;;;;;5.20;3.30;;;;;;;;;;5050881;28;20287;-85
2023/10/08 13:01:07;;;;;;;5.28;3.13;;;;;;;;;;5051251;28;20198;-84
2023/10/08 13:03:40;;;;;;;5.30;3.13;;;;;;;;;;5051481;28;20730;-84
2023/10/08 13:06:11;;;;;;;4.95;3.05;;;;;;;;;;5052329;28;20263;-85
2023/10/08 13:08:38;;;;;;;4.03;3.10;;;;;;;;;;5059192;28;20313;-85
2023/10/08 13:11:07;;;;;;;4.95;2.90;;;;;;;;;;5054866;28;20247;-85
2023/10/08 13:13:36;;;;;;;4.13;2.72;;;;;;;;;;5059669;28;20230;-86
2023/10/08 13:16:07;;;;;;;5.43;2.65;;;;;;;;;;5055782;28;20671;-84
2023/10/08 13:18:37;;;;;;;6.53;2.88;;;;;;;;;;5062591;28;20293;-83
2023/10/08 13:21:04;;;;;;;4.20;2.92;;;;;;;;;;5051661;28;20672;-84
2023/10/08 13:23:34;;;;;;;6.53;2.92;;;;;;;;;;5051409;28;20234;-84
2023/10/08 13:26:04;;;;;;;7.25;2.92;;;;;;;;;;5050984;28;20208;-84
2023/10/08 13:28:33;;;;;;;3.90;2.45;;;;;;;;;;5058329;28;20710;-83
2023/10/08 13:31:06;;;;;;;4.25;3.08;;;;;;;;;;5052117;28;20210;-84
2023/10/08 13:33:33;;;;;;;6.00;3.08;;;;;;;;;;5051133;28;20257;-84
2023/10/08 13:36:00;;;;;;;5.43;2.95;;;;;;;;;;5059459;28;20209;-84
2023/10/08 13:38:27;;;;;;;4.82;2.83;;;;;;;;;;5054573;28;20253;-84
2023/10/08 13:41:06;;;;;;;4.57;2.85;;;;;;;;;;5057487;28;20237;-84
2023/10/08 13:43:34;;;;;;;3.85;2.58;;;;;;;;;;5054039;28;20240;-83
2023/10/08 13:46:04;;;;;;;6.30;3.40;;;;;;;;;;5050309;28;20301;-82
2023/10/08 13:48:32;;;;;;;6.53;3.65;;;;;;;;;;5056287;28;20239;-83
2023/10/08 13:51:00;;;;;;;3.22;2.55;;;;;;;;;;5052105;28;20288;-83
2023/10/08 13:53:29;;;;;;;5.63;3.35;;;;;;;;;;5050580;28;20311;-83
2023/10/08 13:55:56;;;;;;;5.15;3.40;;;;;;;;;;5050870;28;20289;-82
2023/10/08 13:58:24;;;;;;;5.00;2.70;;;;;;;;;;5050395;28;20648;-82
2023/10/08 14:00:52;;;;;;;6.07;3.72;;;;;;;;;;5059023;28;20307;-82
2023/10/08 14:03:21;;;;;;;3.83;2.63;;;;;;;;;;5050007;28;20695;-83
2023/10/08 14:05:50;;;;;;;6.07;2.83;;;;;;;;;;5050908;28;20213;-83
2023/10/08 14:08:17;;;;;;;5.05;3.30;;;;;;;;;;5068152;28;20274;-82
2023/10/08 14:10:44;;;;;;;5.22;3.03;;;;;;;;;;5053995;28;20256;-82
2023/10/08 14:13:11;;;;;;;4.80;3.08;;;;;;;;;;5050329;28;20206;-82
2023/10/08 14:15:44;;;;;;;6.00;3.10;;;;;;;;;;5061011;28;20698;-82
2023/10/08 14:18:16;;;;;;;3.50;2.75;;;;;;;;;;5057160;28;20223;-83
2023/10/08 14:20:46;;;;;;;5.82;2.83;;;;;;;;;;5057324;28;20241;-84
2023/10/08 14:23:16;;;;;;;7.45;2.90;;;;;;;;;;5056038;28;20210;-83
2023/10/08 14:25:44;;;;;;;8.02;3.22;;;;;;;;;;5064806;28;20286;-84
2023/10/08 14:28:21;;;;;;;5.28;3.15;;;;;;;;;;5057125;28;20324;-83
2023/10/08 14:30:52;;;;;;;5.10;3.20;;;;;;;;;;5059378;28;20201;-84
2023/10/08 14:33:26;;;;;;;7.53;3.10;;;;;;;;;;5049920;28;20222;-84
2023/10/08 14:44:16;;;;;;;5.55;3.15;;;;;;;;;;5051046;28;20240;-86
2023/10/08 14:46:44;;;;;;;5.93;2.90;;;;;;;;;;5055637;28;20202;-85
2023/10/08 14:49:13;;;;;;;7.00;3.55;;;;;;;;;;5057314;28;20271;-85
2023/10/08 14:51:41;;;;;;;5.45;3.13;;;;;;;;;;5065056;28;20565;-85
2023/10/08 14:54:08;;;;;;;5.05;3.30;;;;;;;;;;5064343;28;20703;-85
2023/10/08 14:56:36;;;;;;;6.03;2.90;;;;;;;;;;5060014;28;20668;-85
2023/10/08 14:59:03;;;;;;;5.97;2.97;;;;;;;;;;5055321;28;20241;-85
2023/10/08 15:01:32;;;;;;;8.95;3.28;;;;;;;;;;5059584;28;20594;-85
2023/10/08 15:04:03;;;;;;;6.47;3.03;;;;;;;;;;5055106;28;20236;-85
2023/10/08 15:06:31;;;;;;;4.07;2.50;;;;;;;;;;5065942;28;20202;-84
2023/10/08 15:08:58;;;;;;;4.75;2.95;;;;;;;;;;5056156;28;20233;-84
2023/10/08 15:11:26;;;;;;;6.82;3.40;;;;;;;;;;5055881;28;20680;-83
2023/10/08 15:13:54;;;;;;;8.82;3.30;;;;;;;;;;5054001;28;20230;-84
2023/10/08 15:16:22;;;;;;;4.78;3.17;;;;;;;;;;5053882;28;20212;-84
2023/10/08 15:18:50;;;;;;;4.78;3.05;;;;;;;;;;5053694;28;20292;-85
2023/10/08 15:21:17;;;;;;;8.20;3.17;;;;;;;;;;5062497;28;20720;-84
2023/10/08 15:23:46;;;;;;;5.68;3.13;;;;;;;;;;5053602;28;20617;-84